createdAt,value
2023-01-29T00:00:38.744Z,29.73
2023-01-29T00:03:28.452Z,21.00
2023-01-29T00:05:57.136Z,23.20
2023-01-29T00:08:25.553Z,20.13
2023-01-29T00:10:54.326Z,26.57
2023-01-29T00:13:22.656Z,18.33
2023-01-29T00:15:55.855Z,22.90
2023-01-29T00:18:24.317Z,19.60
2023-01-29T00:20:54.651Z,18.07
2023-01-29T00:23:23.456Z,19.97
2023-01-29T00:25:52.173Z,16.57
2023-01-29T00:28:20.792Z,16.07
2023-01-29T00:30:49.507Z,18.40
2023-01-29T00:33:17.954Z,22.00
2023-01-29T00:35:46.848Z,21.73
2023-01-29T00:38:16.737Z,21.07
2023-01-29T00:41:03.306Z,21.57
2023-01-29T00:43:48.761Z,21.07
2023-01-29T00:46:17.399Z,14.40
2023-01-29T00:48:45.959Z,19.10
2023-01-29T00:51:14.552Z,17.40
2023-01-29T00:53:44.300Z,24.43
2023-01-29T00:56:12.968Z,14.03
2023-01-29T00:58:41.760Z,16.40
2023-01-29T01:01:10.367Z,18.57
2023-01-29T01:03:42.141Z,14.83
2023-01-29T01:06:12.180Z,17.50
2023-01-29T01:08:57.833Z,14.23
2023-01-29T01:11:28.030Z,20.77
2023-01-29T01:14:02.149Z,20.77
2023-01-29T01:16:30.972Z,17.47
2023-01-29T01:18:59.428Z,20.47
2023-01-29T01:21:28.012Z,14.53
2023-01-29T01:23:56.700Z,15.63
2023-01-29T01:26:25.384Z,17.80
2023-01-29T01:28:55.105Z,14.17
2023-01-29T01:31:23.831Z,12.30
2023-01-29T01:33:54.280Z,16.93
2023-01-29T01:36:23.549Z,15.20
2023-01-29T01:38:51.928Z,11.93
2023-01-29T01:41:22.897Z,20.23
2023-01-29T01:43:55.672Z,14.10
2023-01-29T01:46:25.113Z,17.93
2023-01-29T01:51:47.114Z,12.60
2023-01-29T01:54:19.142Z,24.00
2023-01-29T01:56:55.412Z,15.77
2023-01-29T01:59:25.546Z,13.80
2023-01-29T02:01:55.623Z,20.73
2023-01-29T02:04:45.432Z,15.83
2023-01-29T02:07:33.954Z,20.00
2023-01-29T02:10:09.566Z,19.47
2023-01-29T02:12:38.302Z,20.87
2023-01-29T02:15:09.791Z,25.53
2023-01-29T02:17:38.859Z,20.70
2023-01-29T02:20:15.491Z,22.77
2023-01-29T02:23:03.657Z,21.00
2023-01-29T02:26:00.310Z,21.40
2023-01-29T02:28:39.199Z,18.40
2023-01-29T02:31:14.196Z,16.03
2023-01-29T02:33:52.897Z,17.60
2023-01-29T02:36:28.998Z,15.43
2023-01-29T02:39:07.824Z,18.80
2023-01-29T02:41:43.128Z,13.13
2023-01-29T02:44:23.088Z,15.73
2023-01-29T02:46:58.194Z,13.50
2023-01-29T02:49:34.340Z,12.03
2023-01-29T02:52:08.336Z,14.77
2023-01-29T02:54:45.236Z,12.27
2023-01-29T02:57:20.420Z,15.40
2023-01-29T02:59:56.569Z,11.33
2023-01-29T03:02:30.281Z,14.97
2023-01-29T03:05:02.782Z,13.60
2023-01-29T03:07:44.887Z,12.33
2023-01-29T03:10:25.044Z,10.87
2023-01-29T03:12:59.726Z,13.23
2023-01-29T03:15:38.657Z,14.97
2023-01-29T03:18:26.175Z,11.93
2023-01-29T03:21:01.447Z,12.73
2023-01-29T03:23:49.655Z,13.87
2023-01-29T03:26:40.379Z,15.83
2023-01-29T03:29:28.399Z,11.93
2023-01-29T03:32:05.339Z,10.20
2023-01-29T03:34:43.614Z,11.57
2023-01-29T03:37:18.839Z,14.00
2023-01-29T03:39:47.850Z,10.53
2023-01-29T03:42:25.363Z,17.37
2023-01-29T03:45:00.471Z,11.17
2023-01-29T03:47:44.543Z,14.07
2023-01-29T03:50:22.348Z,15.33
2023-01-29T03:52:57.500Z,11.17
2023-01-29T03:55:34.844Z,13.80
2023-01-29T03:58:10.584Z,15.77
2023-01-29T04:00:42.627Z,13.97
2023-01-29T04:03:20.437Z,14.43
2023-01-29T04:05:53.273Z,19.90
2023-01-29T04:08:31.833Z,9.03
2023-01-29T04:11:08.741Z,17.00
2023-01-29T04:13:38.110Z,10.27
2023-01-29T04:16:12.080Z,12.70
2023-01-29T04:19:01.309Z,12.10
2023-01-29T04:21:37.529Z,12.53
2023-01-29T04:24:08.386Z,16.97
2023-01-29T04:26:58.356Z,15.43
2023-01-29T04:29:39.328Z,14.87
2023-01-29T04:32:16.240Z,10.43
2023-01-29T04:35:00.773Z,14.77
2023-01-29T04:37:40.909Z,16.27
2023-01-29T04:40:19.575Z,8.33
2023-01-29T04:42:56.139Z,16.60
2023-01-29T04:45:35.360Z,17.07
2023-01-29T04:48:14.465Z,17.80
2023-01-29T04:50:53.552Z,15.67
2023-01-29T04:53:29.575Z,11.20
2023-01-29T04:56:02.220Z,12.43
2023-01-29T04:58:35.957Z,16.37
2023-01-29T05:01:08.209Z,12.53
2023-01-29T05:03:38.665Z,14.67
2023-01-29T05:06:10.949Z,14.13
2023-01-29T05:08:40.794Z,15.10
2023-01-29T05:11:09.940Z,12.10
2023-01-29T05:13:42.472Z,11.47
2023-01-29T05:16:16.576Z,13.73
2023-01-29T05:18:45.083Z,12.87
2023-01-29T05:21:15.201Z,11.27
2023-01-29T05:23:59.382Z,12.90
2023-01-29T05:26:46.785Z,11.57
2023-01-29T05:29:15.140Z,10.53
2023-01-29T05:31:45.487Z,15.70
2023-01-29T05:34:13.934Z,19.53
2023-01-29T05:36:44.188Z,7.50
2023-01-29T05:39:12.519Z,11.13
2023-01-29T05:41:41.153Z,7.83
2023-01-29T05:44:10.623Z,9.70
2023-01-29T05:46:39.730Z,10.30
2023-01-29T05:49:08.048Z,7.10
2023-01-29T05:51:36.837Z,10.20
2023-01-29T05:54:07.076Z,9.67
2023-01-29T05:56:35.727Z,10.03
2023-01-29T05:59:04.072Z,15.60
2023-01-29T06:01:32.676Z,10.33
2023-01-29T06:04:01.071Z,11.13
2023-01-29T06:06:29.896Z,10.53
2023-01-29T06:08:58.419Z,10.73
2023-01-29T06:11:28.535Z,14.13
2023-01-29T06:13:56.932Z,11.70
2023-01-29T06:16:25.560Z,10.57
2023-01-29T06:18:54.350Z,9.93
2023-01-29T06:21:23.114Z,14.77
2023-01-29T06:23:55.045Z,11.27
2023-01-29T06:26:23.698Z,12.43
2023-01-29T06:28:53.350Z,12.43
2023-01-29T06:31:37.386Z,10.57
2023-01-29T06:34:07.022Z,14.20
2023-01-29T06:36:36.725Z,11.97
2023-01-29T06:39:05.746Z,15.53
2023-01-29T06:41:34.613Z,19.37
2023-01-29T06:44:04.483Z,13.07
2023-01-29T06:46:33.693Z,20.07
2023-01-29T06:49:02.121Z,12.40
2023-01-29T06:51:30.886Z,13.87
2023-01-29T06:53:59.295Z,16.87
2023-01-29T06:56:28.231Z,17.23
2023-01-29T06:58:56.616Z,12.83
2023-01-29T07:01:35.765Z,11.33
2023-01-29T07:04:04.856Z,16.93
2023-01-29T07:06:34.008Z,12.83
2023-01-29T07:09:02.516Z,15.13
2023-01-29T07:11:31.954Z,17.90
2023-01-29T07:14:00.389Z,13.87
2023-01-29T07:16:30.487Z,15.90
2023-01-29T07:18:58.933Z,13.77
2023-01-29T07:21:27.998Z,16.00
2023-01-29T07:23:56.482Z,17.97
2023-01-29T07:26:25.152Z,13.27
2023-01-29T07:28:53.527Z,17.60
2023-01-29T07:31:22.919Z,15.07
2023-01-29T07:33:52.682Z,16.57
2023-01-29T07:36:21.284Z,16.57
2023-01-29T07:38:50.862Z,11.87
2023-01-29T07:41:20.032Z,18.57
2023-01-29T07:43:48.864Z,19.00
2023-01-29T07:46:17.553Z,18.47
2023-01-29T07:48:45.993Z,20.80
2023-01-29T07:51:18.101Z,19.77
2023-01-29T07:53:47.123Z,16.43
2023-01-29T07:56:15.835Z,20.63
2023-01-29T07:58:44.111Z,19.30
2023-01-29T08:01:12.873Z,22.30
2023-01-29T08:03:41.288Z,18.80
2023-01-29T08:06:09.633Z,17.47
2023-01-29T08:08:39.716Z,15.13
2023-01-29T08:11:08.218Z,21.83
2023-01-29T08:13:36.798Z,17.73
2023-01-29T08:16:06.512Z,18.43
2023-01-29T08:18:35.137Z,21.30
2023-01-29T08:21:04.046Z,21.47
2023-01-29T08:23:32.652Z,15.93
2023-01-29T08:26:03.867Z,18.77
2023-01-29T08:28:32.832Z,22.80
2023-01-29T08:31:01.742Z,19.67
2023-01-29T08:33:38.655Z,20.83
2023-01-29T08:36:08.707Z,19.03
2023-01-29T08:38:37.510Z,15.93
2023-01-29T08:41:07.681Z,19.47
2023-01-29T08:43:36.995Z,23.67
2023-01-29T08:46:06.367Z,19.00
2023-01-29T08:48:35.475Z,24.10
2023-01-29T08:51:04.622Z,20.03
2023-01-29T08:53:34.091Z,18.57
2023-01-29T08:56:02.462Z,19.30
2023-01-29T08:58:32.511Z,19.30
2023-01-29T09:01:07.908Z,22.77
2023-01-29T09:03:36.789Z,22.27
2023-01-29T09:06:05.539Z,18.67
2023-01-29T09:08:35.377Z,16.73
2023-01-29T09:11:03.751Z,19.23
2023-01-29T09:13:33.968Z,24.03
2023-01-29T09:16:03.533Z,18.37
2023-01-29T09:18:32.720Z,21.10
2023-01-29T09:21:02.536Z,17.73
2023-01-29T09:23:31.418Z,19.17
2023-01-29T09:26:00.289Z,16.07
2023-01-29T09:28:29.205Z,19.47
2023-01-29T09:31:02.367Z,19.23
2023-01-29T09:33:32.462Z,20.20
2023-01-29T09:36:00.912Z,17.93
2023-01-29T09:38:29.571Z,19.03
2023-01-29T09:41:07.496Z,22.37
2023-01-29T09:43:46.735Z,18.23
2023-01-29T09:46:23.040Z,19.17
2023-01-29T09:48:58.836Z,22.03
2023-01-29T09:51:35.271Z,20.17
2023-01-29T09:54:16.290Z,23.73
2023-01-29T09:56:47.547Z,22.00
2023-01-29T09:59:21.064Z,19.77
2023-01-29T10:02:00.789Z,19.47
2023-01-29T10:05:04.766Z,23.37
2023-01-29T10:08:03.602Z,22.77
2023-01-29T10:10:47.048Z,18.27
2023-01-29T10:13:25.684Z,28.33
2023-01-29T10:16:09.732Z,18.43
2023-01-29T10:19:18.495Z,31.90
2023-01-29T10:22:16.274Z,28.80
2023-01-29T10:24:54.161Z,23.43
2023-01-29T10:27:22.976Z,25.43
2023-01-29T10:29:54.508Z,21.93
2023-01-29T10:32:27.177Z,27.57
2023-01-29T10:34:59.976Z,22.70
2023-01-29T10:37:38.195Z,19.70
2023-01-29T10:40:21.330Z,21.33
2023-01-29T10:42:59.530Z,16.73
2023-01-29T10:45:36.679Z,18.47
2023-01-29T10:48:50.197Z,24.90
2023-01-29T10:51:41.570Z,28.13
2023-01-29T10:54:26.947Z,23.10
2023-01-29T10:57:10.439Z,20.50
2023-01-29T10:59:52.958Z,19.20
2023-01-29T11:02:22.732Z,25.83
2023-01-29T11:04:51.816Z,24.97
2023-01-29T11:07:24.065Z,19.63
2023-01-29T11:09:59.191Z,23.70
2023-01-29T11:12:32.115Z,23.90
2023-01-29T11:15:06.348Z,27.27
2023-01-29T11:17:34.739Z,25.07
2023-01-29T11:20:03.726Z,25.67
2023-01-29T11:22:36.970Z,29.53
2023-01-29T11:25:11.960Z,22.40
2023-01-29T11:27:45.854Z,27.17
2023-01-29T11:30:24.772Z,29.47
2023-01-29T11:33:01.524Z,25.97
2023-01-29T11:35:30.638Z,26.60
2023-01-29T11:38:09.775Z,26.90
2023-01-29T11:40:42.275Z,22.43
2023-01-29T11:43:29.101Z,23.63
2023-01-29T11:46:01.294Z,29.07
2023-01-29T11:48:40.633Z,24.77
2023-01-29T11:51:12.245Z,22.73
2023-01-29T11:53:44.319Z,22.03
2023-01-29T11:56:23.672Z,27.13
2023-01-29T11:58:55.403Z,24.87
2023-01-29T12:01:33.365Z,30.30
2023-01-29T12:04:02.616Z,24.83
2023-01-29T12:06:36.263Z,26.67
2023-01-29T12:09:14.466Z,23.00
2023-01-29T12:11:44.985Z,24.03
2023-01-29T12:14:28.254Z,25.60
2023-01-29T12:17:00.566Z,28.57
2023-01-29T12:19:35.854Z,27.33
2023-01-29T12:22:09.868Z,24.20
2023-01-29T12:24:45.662Z,35.67
2023-01-29T12:27:20.720Z,28.47
2023-01-29T12:29:53.645Z,26.90
2023-01-29T12:32:31.071Z,30.10
2023-01-29T12:35:04.628Z,28.13
2023-01-29T12:37:42.319Z,32.60
2023-01-29T12:40:18.473Z,31.23
2023-01-29T12:42:51.540Z,31.37
2023-01-29T12:45:22.081Z,27.73
2023-01-29T12:47:53.756Z,31.53
2023-01-29T12:50:24.074Z,35.63
2023-01-29T12:52:55.702Z,35.50
2023-01-29T12:55:29.044Z,31.67
2023-01-29T12:57:59.798Z,27.33
2023-01-29T13:00:30.952Z,29.73
2023-01-29T13:03:05.219Z,32.60
2023-01-29T13:05:40.621Z,29.07
2023-01-29T13:08:15.739Z,26.10
2023-01-29T13:10:50.359Z,30.03
2023-01-29T13:13:27.923Z,26.33
2023-01-29T13:15:58.723Z,33.30
2023-01-29T13:18:44.664Z,23.53
2023-01-29T13:21:19.172Z,28.67
2023-01-29T13:23:51.024Z,30.73
2023-01-29T13:26:22.342Z,28.03
2023-01-29T13:28:52.704Z,25.23
2023-01-29T13:31:33.595Z,25.57
2023-01-29T13:34:14.632Z,27.27
2023-01-29T13:36:45.291Z,24.87
2023-01-29T13:39:23.751Z,24.03
2023-01-29T13:41:55.567Z,24.90
2023-01-29T13:44:27.528Z,26.07
2023-01-29T13:46:59.247Z,29.00
2023-01-29T13:49:39.264Z,23.27
2023-01-29T13:52:24.480Z,34.57
2023-01-29T13:54:57.321Z,26.87
2023-01-29T13:57:47.411Z,32.67
2023-01-29T14:00:45.866Z,27.73
2023-01-29T14:04:06.581Z,24.40
2023-01-29T14:06:45.936Z,27.80
2023-01-29T14:09:51.162Z,25.37
2023-01-29T14:12:40.256Z,30.60
2023-01-29T14:15:32.758Z,28.60
2023-01-29T14:18:26.602Z,31.37
2023-01-29T14:21:04.699Z,34.17
2023-01-29T14:23:41.652Z,33.87
2023-01-29T14:26:33.803Z,27.00
2023-01-29T14:29:25.650Z,25.73
2023-01-29T14:32:11.178Z,27.10
2023-01-29T14:34:45.939Z,24.23
2023-01-29T14:37:24.618Z,29.70
2023-01-29T14:39:57.578Z,34.47
2023-01-29T14:42:30.827Z,30.37
2023-01-29T14:45:08.538Z,28.53
2023-01-29T14:48:00.699Z,28.07
2023-01-29T14:50:49.736Z,26.03
2023-01-29T14:53:30.915Z,24.53
2023-01-29T14:56:03.028Z,35.97
2023-01-29T14:58:39.316Z,27.30
2023-01-29T15:01:20.676Z,30.07
2023-01-29T15:03:52.094Z,35.43
2023-01-29T15:06:27.515Z,30.07
2023-01-29T15:09:03.463Z,29.40
2023-01-29T15:11:38.411Z,27.00
2023-01-29T15:14:31.204Z,31.83
2023-01-29T15:17:17.249Z,20.07
2023-01-29T15:19:48.069Z,34.33
2023-01-29T15:22:18.073Z,25.33
2023-01-29T15:24:48.496Z,26.73
2023-01-29T15:27:19.913Z,30.60
2023-01-29T15:29:54.446Z,28.13
2023-01-29T15:32:31.729Z,30.47
2023-01-29T15:35:01.886Z,25.37
2023-01-29T15:37:33.505Z,31.40
2023-01-29T15:40:02.776Z,30.80
2023-01-29T15:42:44.692Z,27.23
2023-01-29T15:45:23.816Z,29.90
2023-01-29T15:47:56.267Z,32.77
2023-01-29T15:50:25.237Z,29.43
2023-01-29T15:52:55.645Z,27.33
2023-01-29T15:55:25.767Z,32.97
2023-01-29T15:57:55.273Z,28.70
2023-01-29T16:00:28.604Z,35.43
2023-01-29T16:03:00.643Z,25.27
2023-01-29T16:05:33.025Z,26.80
2023-01-29T16:08:02.572Z,25.93
2023-01-29T16:10:33.578Z,23.73
2023-01-29T16:13:04.350Z,28.77
2023-01-29T16:15:35.027Z,25.97
2023-01-29T16:18:21.965Z,26.57
2023-01-29T16:20:54.135Z,26.77
2023-01-29T16:23:27.564Z,23.60
2023-01-29T16:25:57.735Z,26.17
2023-01-29T16:28:26.460Z,25.80
2023-01-29T16:30:58.117Z,21.73
2023-01-29T16:33:35.895Z,27.03
2023-01-29T16:36:06.127Z,22.03
2023-01-29T16:38:37.088Z,22.97
2023-01-29T16:41:16.619Z,27.07
2023-01-29T16:43:50.692Z,31.40
2023-01-29T16:46:27.369Z,30.60
2023-01-29T16:48:57.484Z,29.07
2023-01-29T16:51:28.995Z,32.27
2023-01-29T16:54:01.069Z,30.53
2023-01-29T16:56:32.792Z,42.53
2023-01-29T16:59:03.513Z,27.23
2023-01-29T17:01:32.592Z,31.57
2023-01-29T17:04:07.923Z,36.93
2023-01-29T17:06:37.300Z,31.40
2023-01-29T17:09:07.020Z,32.13
2023-01-29T17:11:38.464Z,32.17
2023-01-29T17:14:08.773Z,32.17
2023-01-29T17:16:48.241Z,27.00
2023-01-29T17:19:22.598Z,34.10
2023-01-29T17:21:51.235Z,33.77
2023-01-29T17:24:19.839Z,32.07
2023-01-29T17:26:48.326Z,34.10
2023-01-29T17:29:20.177Z,36.27
2023-01-29T17:31:48.598Z,30.33
2023-01-29T17:34:18.740Z,33.97
2023-01-29T17:36:47.577Z,32.93
2023-01-29T17:39:19.017Z,36.03
2023-01-29T17:41:50.665Z,38.63
2023-01-29T17:44:19.787Z,37.43
2023-01-29T17:46:48.929Z,35.23
2023-01-29T17:49:25.503Z,32.37
2023-01-29T17:51:54.792Z,28.30
2023-01-29T17:54:25.715Z,32.27
2023-01-29T17:56:55.174Z,33.10
2023-01-29T17:59:26.310Z,36.50
2023-01-29T18:01:55.733Z,31.97
2023-01-29T18:04:26.296Z,33.93
2023-01-29T18:06:57.937Z,39.20
2023-01-29T18:09:27.446Z,30.13
2023-01-29T18:11:55.955Z,36.23
2023-01-29T18:14:24.550Z,38.00
2023-01-29T18:16:52.977Z,32.10
2023-01-29T18:19:27.394Z,29.37
2023-01-29T18:21:55.954Z,27.30
2023-01-29T18:24:26.508Z,29.50
2023-01-29T18:26:55.087Z,30.73
2023-01-29T18:29:29.385Z,26.17
2023-01-29T18:31:58.412Z,31.27
2023-01-29T18:34:28.565Z,30.20
2023-01-29T18:36:56.953Z,24.77
2023-01-29T18:39:25.555Z,36.03
2023-01-29T18:41:53.878Z,32.00
2023-01-29T18:44:22.550Z,31.63
2023-01-29T18:46:51.020Z,34.53
2023-01-29T18:49:19.895Z,25.30
2023-01-29T18:51:49.661Z,27.73
2023-01-29T18:54:20.214Z,23.97
2023-01-29T18:57:13.216Z,30.63
2023-01-29T18:59:37.310Z,31.20
2023-01-29T19:02:05.961Z,33.13
2023-01-29T19:04:34.955Z,30.67
2023-01-29T19:07:04.794Z,28.17
2023-01-29T19:09:33.983Z,26.20
2023-01-29T19:12:02.487Z,26.97
2023-01-29T19:14:31.267Z,28.43
2023-01-29T19:17:01.657Z,28.53
2023-01-29T19:19:30.525Z,27.97
2023-01-29T19:21:59.202Z,24.87
2023-01-29T19:24:29.895Z,33.83
2023-01-29T19:26:58.451Z,25.97
2023-01-29T19:29:27.249Z,31.73
2023-01-29T19:31:55.805Z,31.17
2023-01-29T19:34:26.928Z,28.27
2023-01-29T19:36:55.968Z,26.93
2023-01-29T19:39:29.839Z,25.33
2023-01-29T19:42:00.102Z,26.07
2023-01-29T19:44:29.070Z,25.20
2023-01-29T19:46:57.503Z,27.43
2023-01-29T19:49:27.458Z,27.23
2023-01-29T19:51:58.799Z,26.77
2023-01-29T19:54:29.533Z,28.00
2023-01-29T19:56:59.680Z,30.13
2023-01-29T19:59:28.405Z,26.83
2023-01-29T20:01:57.010Z,26.23
2023-01-29T20:04:26.781Z,27.17
2023-01-29T20:06:55.344Z,28.37
2023-01-29T20:09:24.466Z,25.03
2023-01-29T20:11:52.972Z,25.63
2023-01-29T20:14:24.210Z,27.93
2023-01-29T20:16:53.166Z,23.63
2023-01-29T20:19:22.310Z,26.23
2023-01-29T20:21:51.142Z,28.80
2023-01-29T20:24:20.042Z,28.47
2023-01-29T20:26:49.323Z,27.40
2023-01-29T20:29:18.754Z,29.93
2023-01-29T20:31:48.950Z,24.97
2023-01-29T20:34:18.016Z,26.30
2023-01-29T20:36:46.571Z,22.53
2023-01-29T20:39:15.750Z,30.37
2023-01-29T20:41:44.553Z,31.17
2023-01-29T20:44:13.850Z,28.97
2023-01-29T20:46:42.745Z,29.57
2023-01-29T20:49:13.534Z,24.70
2023-01-29T20:51:42.560Z,27.33
2023-01-29T20:54:12.833Z,24.70
2023-01-29T20:56:44.244Z,30.63
2023-01-29T20:59:14.261Z,25.97
2023-01-29T21:01:44.302Z,23.10
2023-01-29T21:04:14.681Z,22.90
2023-01-29T21:06:43.675Z,26.63
2023-01-29T21:09:12.663Z,22.93
2023-01-29T21:11:41.213Z,23.93
2023-01-29T21:14:09.997Z,21.97
2023-01-29T21:16:38.413Z,26.40
2023-01-29T21:19:07.215Z,23.87
2023-01-29T21:21:36.955Z,26.23
2023-01-29T21:24:06.035Z,25.87
2023-01-29T21:26:34.395Z,24.30
2023-01-29T21:29:17.910Z,22.73
2023-01-29T21:31:46.448Z,25.13
2023-01-29T21:34:15.439Z,24.10
2023-01-29T21:36:46.737Z,31.30
2023-01-29T21:39:19.639Z,22.73
2023-01-29T21:42:06.882Z,23.60
2023-01-29T21:44:36.166Z,24.33
2023-01-29T21:47:12.249Z,20.23
2023-01-29T21:49:42.253Z,26.60
2023-01-29T21:52:13.283Z,22.27
2023-01-29T21:54:45.580Z,25.70
2023-01-29T21:57:15.993Z,22.53
2023-01-29T21:59:50.044Z,24.80
2023-01-29T22:02:23.006Z,25.00
2023-01-29T22:04:52.349Z,24.97
2023-01-29T22:07:22.259Z,22.17
2023-01-29T22:09:51.200Z,25.63
2023-01-29T22:12:19.642Z,22.17
2023-01-29T22:14:48.365Z,20.03
2023-01-29T22:17:17.326Z,21.30
2023-01-29T22:19:46.272Z,21.30
2023-01-29T22:22:15.619Z,24.00
2023-01-29T22:24:46.612Z,22.40
2023-01-29T22:27:15.720Z,20.90
2023-01-29T22:29:44.296Z,21.33
2023-01-29T22:32:13.309Z,18.90
2023-01-29T22:34:42.220Z,23.10
2023-01-29T22:37:10.581Z,21.00
2023-01-29T22:39:39.230Z,20.67
2023-01-29T22:42:09.032Z,18.50
2023-01-29T22:44:37.672Z,20.07
2023-01-29T22:47:06.234Z,15.87
2023-01-29T22:49:34.949Z,21.90
2023-01-29T22:52:12.255Z,18.43
2023-01-29T22:54:41.954Z,23.90
2023-01-29T22:57:12.968Z,22.43
2023-01-29T22:59:41.799Z,17.77
2023-01-29T23:02:10.412Z,21.73
2023-01-29T23:04:38.999Z,19.97
2023-01-29T23:07:07.529Z,20.93
2023-01-29T23:09:36.225Z,19.40
2023-01-29T23:12:04.942Z,21.77
2023-01-29T23:14:34.888Z,21.50
2023-01-29T23:17:03.422Z,19.83
2023-01-29T23:19:32.092Z,18.17
2023-01-29T23:22:00.512Z,18.67
2023-01-29T23:24:29.414Z,23.20
2023-01-29T23:27:14.471Z,20.10
2023-01-29T23:29:45.668Z,19.93
2023-01-29T23:32:19.531Z,26.17
2023-01-29T23:34:48.534Z,24.93
2023-01-29T23:37:17.022Z,17.93
2023-01-29T23:39:45.897Z,19.53
2023-01-29T23:42:14.322Z,22.83
2023-01-29T23:44:45.156Z,17.13
2023-01-29T23:47:13.563Z,24.33
2023-01-29T23:49:42.179Z,20.17
2023-01-29T23:52:10.562Z,21.40
2023-01-29T23:54:39.219Z,19.97
2023-01-29T23:57:07.559Z,18.37
2023-01-29T23:59:36.243Z,22.37
